createdAt,value
2018-08-13T00:01:43.640Z,100381.03
2018-08-13T00:04:12.035Z,100366.75
2018-08-13T00:06:41.097Z,100363.77
2018-08-13T00:09:10.028Z,100361.31
2018-08-13T00:11:39.472Z,100363.38
2018-08-13T00:14:07.996Z,100357.31
2018-08-13T00:16:36.457Z,100358.22
2018-08-13T00:19:04.958Z,100359.75
2018-08-13T00:21:33.476Z,100362.81
2018-08-13T00:24:01.895Z,100360.26
2018-08-13T00:26:31.998Z,100357.74
2018-08-13T00:29:00.472Z,100354.08
2018-08-13T00:31:28.985Z,100349.72
2018-08-13T00:33:58.470Z,100349.72
2018-08-13T00:36:26.976Z,100344.20
2018-08-13T00:38:55.572Z,100346.41
2018-08-13T00:41:24.108Z,100346.50
2018-08-13T00:43:55.156Z,100346.60
2018-08-13T00:46:23.664Z,100344.59
2018-08-13T00:48:52.428Z,100343.83
2018-08-13T00:51:21.752Z,100341.77
2018-08-13T00:53:50.249Z,100339.97
2018-08-13T00:56:18.774Z,100337.85
2018-08-13T00:58:47.571Z,100334.84
2018-08-13T01:01:16.035Z,100327.03
2018-08-13T01:03:44.630Z,100324.59
2018-08-13T01:06:13.074Z,100327.98
2018-08-13T01:08:41.746Z,100326.73
2018-08-13T01:11:10.200Z,100324.59
2018-08-13T01:13:38.684Z,100323.73
2018-08-13T01:16:07.146Z,100327.39
2018-08-13T01:18:35.541Z,100325.18
2018-08-13T01:21:03.985Z,100320.82
2018-08-13T01:23:32.691Z,100320.96
2018-08-13T01:26:01.164Z,100320.70
2018-08-13T01:28:29.653Z,100321.35
2018-08-13T01:30:58.111Z,100314.78
2018-08-13T01:33:26.717Z,100313.08
2018-08-13T01:35:55.173Z,100302.75
2018-08-13T01:38:23.712Z,100309.62
2018-08-13T01:40:52.421Z,100295.89
2018-08-13T01:43:20.849Z,100290.77
2018-08-13T01:45:49.343Z,100285.30
2018-08-13T01:48:17.927Z,100289.61
2018-08-13T01:50:46.801Z,100284.00
2018-08-13T01:53:15.314Z,100279.04
2018-08-13T01:55:43.750Z,100273.26
2018-08-13T01:58:12.808Z,100272.75
2018-08-13T02:00:41.325Z,100274.64
2018-08-13T02:03:09.805Z,100269.70
2018-08-13T02:05:38.710Z,100264.48
2018-08-13T02:08:07.280Z,100268.90
2018-08-13T02:10:35.887Z,100264.09
2018-08-13T02:13:04.421Z,100269.09
2018-08-13T02:15:33.301Z,100267.02
2018-08-13T02:18:01.819Z,100268.86
2018-08-13T02:20:30.427Z,100265.86
2018-08-13T02:22:59.345Z,100261.70
2018-08-13T02:25:27.833Z,100260.13
2018-08-13T02:27:56.378Z,100264.63
2018-08-13T02:30:25.182Z,100261.84
2018-08-13T02:32:53.661Z,100269.57
2018-08-13T02:35:22.123Z,100263.78
2018-08-13T02:37:50.570Z,100271.54
2018-08-13T02:40:19.102Z,100265.13
2018-08-13T02:42:47.597Z,100266.07
2018-08-13T02:45:16.132Z,100262.67
2018-08-13T02:47:45.208Z,100256.88
2018-08-13T02:50:14.594Z,100255.78
2018-08-13T02:52:43.014Z,100248.56
2018-08-13T02:55:12.248Z,100247.84
2018-08-13T02:57:41.461Z,100239.94
2018-08-13T03:00:11.400Z,100233.08
2018-08-13T03:02:40.609Z,100233.63
2018-08-13T03:05:11.437Z,100232.05
2018-08-13T03:07:40.511Z,100242.01
2018-08-13T03:10:11.849Z,100237.97
2018-08-13T03:12:40.333Z,100233.56
2018-08-13T03:15:12.933Z,100232.19
2018-08-13T03:17:42.223Z,100231.28
2018-08-13T03:20:10.752Z,100242.01
2018-08-13T03:22:39.517Z,100230.88
2018-08-13T03:25:09.802Z,100236.06
2018-08-13T03:27:38.213Z,100233.41
2018-08-13T03:30:11.867Z,100234.71
2018-08-13T03:32:40.760Z,100239.12
2018-08-13T03:35:09.416Z,100233.46
2018-08-13T03:37:38.175Z,100236.97
2018-08-13T03:40:09.121Z,100229.88
2018-08-13T03:42:38.606Z,100226.95
2018-08-13T03:45:08.481Z,100227.72
2018-08-13T03:47:37.218Z,100220.05
2018-08-13T03:50:07.449Z,100225.26
2018-08-13T03:52:36.017Z,100217.90
2018-08-13T03:55:04.989Z,100215.54
2018-08-13T03:57:34.327Z,100213.52
2018-08-13T04:00:03.240Z,100206.86
2018-08-13T04:02:31.870Z,100210.92
2018-08-13T04:05:00.825Z,100213.39
2018-08-13T04:07:29.357Z,100207.02
2018-08-13T04:09:58.318Z,100207.87
2018-08-13T04:12:27.311Z,100192.66
2018-08-13T04:14:56.202Z,100194.09
2018-08-13T04:17:25.788Z,100190.38
2018-08-13T04:19:54.362Z,100192.53
2018-08-13T04:22:22.768Z,100183.79
2018-08-13T04:24:51.852Z,100183.73
2018-08-13T04:27:20.877Z,100188.09
2018-08-13T04:29:49.636Z,100185.36
2018-08-13T04:32:18.162Z,100188.04
2018-08-13T04:34:47.562Z,100181.73
2018-08-13T04:37:15.993Z,100184.98
2018-08-13T04:39:44.564Z,100194.01
2018-08-13T04:42:13.032Z,100191.81
2018-08-13T04:44:42.384Z,100186.94
2018-08-13T04:47:11.439Z,100181.66
2018-08-13T04:49:40.929Z,100181.47
2018-08-13T04:52:10.853Z,100183.36
2018-08-13T04:54:39.391Z,100178.80
2018-08-13T04:57:10.393Z,100183.69
2018-08-13T04:59:38.928Z,100184.61
2018-08-13T05:02:08.436Z,100173.64
2018-08-13T05:04:37.094Z,100186.47
2018-08-13T05:07:06.460Z,100185.49
2018-08-13T05:09:37.337Z,100186.80
2018-08-13T05:12:05.772Z,100183.55
2018-08-13T05:14:34.524Z,100183.69
2018-08-13T05:17:04.672Z,100188.75
2018-08-13T05:19:34.276Z,100169.55
2018-08-13T05:22:03.058Z,100178.05
2018-08-13T05:24:31.872Z,100181.42
2018-08-13T05:27:01.755Z,100177.64
2018-08-13T05:29:30.406Z,100179.65
2018-08-13T05:32:00.598Z,100183.41
2018-08-13T05:34:29.331Z,100178.34
2018-08-13T05:36:57.848Z,100173.40
2018-08-13T05:39:26.508Z,100169.56
2018-08-13T05:41:56.593Z,100170.72
2018-08-13T05:44:25.726Z,100163.08
2018-08-13T05:46:55.884Z,100157.27
2018-08-13T05:49:24.405Z,100152.27
2018-08-13T05:51:53.081Z,100153.81
2018-08-13T05:54:21.699Z,100149.22
2018-08-13T05:56:50.202Z,100147.47
2018-08-13T05:59:19.236Z,100152.08
2018-08-13T06:01:47.811Z,100149.72
2018-08-13T06:04:16.474Z,100141.16
2018-08-13T06:06:44.909Z,100143.11
2018-08-13T06:09:14.346Z,100134.59
2018-08-13T06:11:42.943Z,100133.88
2018-08-13T06:14:11.383Z,100126.24
2018-08-13T06:16:40.121Z,100126.18
2018-08-13T06:19:08.964Z,100128.72
2018-08-13T06:21:38.393Z,100125.68
2018-08-13T06:24:07.004Z,100124.76
2018-08-13T06:26:36.933Z,100127.62
2018-08-13T06:29:06.971Z,100132.52
2018-08-13T06:31:35.762Z,100128.20
2018-08-13T06:34:04.699Z,100126.54
2018-08-13T06:36:33.417Z,100129.34
2018-08-13T06:39:02.904Z,100120.02
2018-08-13T06:41:32.423Z,100118.43
2018-08-13T06:44:00.905Z,100112.17
2018-08-13T06:46:29.701Z,100120.38
2018-08-13T06:48:58.697Z,100122.26
2018-08-13T06:51:27.178Z,100123.43
2018-08-13T06:53:57.057Z,100119.47
2018-08-13T06:56:25.567Z,100125.02
2018-08-13T06:58:54.531Z,100133.17
2018-08-13T07:01:23.024Z,100126.16
2018-08-13T07:03:51.489Z,100127.06
2018-08-13T07:06:20.063Z,100122.36
2018-08-13T07:08:48.562Z,100117.62
2018-08-13T07:11:17.051Z,100114.86
2018-08-13T07:13:45.690Z,100122.80
2018-08-13T07:16:14.240Z,100113.45
2018-08-13T07:18:42.775Z,100111.03
2018-08-13T07:21:11.736Z,100108.98
2018-08-13T07:23:40.400Z,100108.55
2018-08-13T07:26:08.935Z,100104.34
2018-08-13T07:28:38.049Z,100107.70
2018-08-13T07:31:06.819Z,100110.05
2018-08-13T07:33:35.666Z,100106.57
2018-08-13T07:36:05.455Z,100104.40
2018-08-13T07:38:34.607Z,100100.66
2018-08-13T07:41:04.863Z,100098.02
2018-08-13T07:43:34.951Z,100102.13
2018-08-13T07:46:03.940Z,100108.48
2018-08-13T07:48:32.373Z,100102.66
2018-08-13T07:51:01.184Z,100105.58
2018-08-13T07:53:29.685Z,100108.55
2018-08-13T07:55:58.877Z,100111.00
2018-08-13T07:58:27.746Z,100114.36
2018-08-13T08:00:57.008Z,100116.43
2018-08-13T08:03:25.601Z,100117.89
2018-08-13T08:05:54.605Z,100113.67
2018-08-13T08:08:23.353Z,100115.54
2018-08-13T08:10:51.991Z,100114.41
2018-08-13T08:13:20.525Z,100122.95
2018-08-13T08:15:50.094Z,100128.55
2018-08-13T08:18:18.766Z,100126.97
2018-08-13T08:20:47.601Z,100130.61
2018-08-13T08:23:16.234Z,100134.26
2018-08-13T08:25:44.825Z,100126.06
2018-08-13T08:28:13.336Z,100122.60
2018-08-13T08:30:41.849Z,100125.72
2018-08-13T08:33:11.335Z,100126.44
2018-08-13T08:35:39.946Z,100127.03
2018-08-13T08:38:09.332Z,100135.50
2018-08-13T08:40:37.902Z,100137.70
2018-08-13T08:43:07.642Z,100137.53
2018-08-13T08:45:36.122Z,100136.30
2018-08-13T08:48:05.127Z,100143.84
2018-08-13T08:50:33.587Z,100137.18
2018-08-13T08:53:02.067Z,100139.20
2018-08-13T08:55:30.664Z,100144.03
2018-08-13T08:57:59.254Z,100147.03
2018-08-13T09:00:27.920Z,100151.15
2018-08-13T09:02:56.391Z,100147.21
2018-08-13T09:05:26.433Z,100148.64
2018-08-13T09:07:54.937Z,100153.44
2018-08-13T09:10:25.160Z,100156.06
2018-08-13T09:12:53.725Z,100167.80
2018-08-13T09:15:22.277Z,100165.77
2018-08-13T09:18:01.966Z,100167.17
2018-08-13T09:20:41.726Z,100170.69
2018-08-13T09:23:21.447Z,100177.46
2018-08-13T09:26:01.263Z,100172.59
2018-08-13T09:28:41.336Z,100177.77
2018-08-13T09:31:22.776Z,100174.88
2018-08-13T09:34:02.441Z,100183.52
2018-08-13T09:36:31.049Z,100189.06
2018-08-13T09:38:59.603Z,100199.88
2018-08-13T09:41:29.040Z,100200.81
2018-08-13T09:43:58.560Z,100203.82
2018-08-13T09:46:28.116Z,100196.16
2018-08-13T09:48:57.317Z,100198.86
2018-08-13T09:51:26.146Z,100208.16
2018-08-13T09:53:54.771Z,100208.10
2018-08-13T09:56:23.661Z,100212.43
2018-08-13T09:58:52.284Z,100218.19
2018-08-13T10:01:21.053Z,100213.52
2018-08-13T10:03:50.156Z,100213.48
2018-08-13T10:06:18.653Z,100207.22
2018-08-13T10:08:47.210Z,100198.42
2018-08-13T10:11:15.848Z,100194.41
2018-08-13T10:13:45.040Z,100190.94
2018-08-13T10:16:13.610Z,100187.84
2018-08-13T10:18:42.150Z,100192.80
2018-08-13T10:21:10.798Z,100194.69
2018-08-13T10:23:39.382Z,100196.27
2018-08-13T10:26:07.935Z,100190.55
2018-08-13T10:28:36.423Z,100197.95
2018-08-13T10:31:05.275Z,100198.50
2018-08-13T10:33:34.636Z,100193.26
2018-08-13T10:36:03.406Z,100188.78
2018-08-13T10:38:31.916Z,100182.70
2018-08-13T10:41:00.476Z,100173.59
2018-08-13T10:43:29.028Z,100174.73
2018-08-13T10:45:57.810Z,100181.36
2018-08-13T10:48:27.956Z,100183.90
2018-08-13T10:50:56.976Z,100180.80
2018-08-13T10:53:26.655Z,100176.59
2018-08-13T10:55:55.656Z,100179.02
2018-08-13T10:58:24.176Z,100170.89
2018-08-13T11:00:54.246Z,100171.55
2018-08-13T11:03:24.678Z,100180.34
2018-08-13T11:05:53.864Z,100187.37
2018-08-13T11:08:22.393Z,100182.30
2018-08-13T11:10:50.950Z,100174.75
2018-08-13T11:13:20.297Z,100163.13
2018-08-13T11:15:48.768Z,100154.26
2018-08-13T11:18:18.036Z,100155.39
2018-08-13T11:20:47.436Z,100157.34
2018-08-13T11:23:16.475Z,100152.56
2018-08-13T11:25:44.988Z,100158.36
2018-08-13T11:28:13.527Z,100150.02
2018-08-13T11:30:42.236Z,100157.41
2018-08-13T11:33:10.747Z,100165.39
2018-08-13T11:35:39.701Z,100159.95
2018-08-13T11:38:08.555Z,100164.98
2018-08-13T11:40:37.277Z,100161.69
2018-08-13T11:43:06.079Z,100165.45
2018-08-13T11:45:35.535Z,100173.63
2018-08-13T11:48:04.094Z,100169.83
2018-08-13T11:50:32.745Z,100164.13
2018-08-13T11:53:01.250Z,100163.41
2018-08-13T11:55:29.754Z,100163.60
2018-08-13T11:57:58.648Z,100163.11
2018-08-13T12:00:27.696Z,100151.22
2018-08-13T12:02:56.136Z,100152.53
2018-08-13T12:05:24.539Z,100149.66
2018-08-13T12:07:53.715Z,100152.47
2018-08-13T12:10:23.612Z,100155.16
2018-08-13T12:12:52.075Z,100165.25
2018-08-13T12:15:21.579Z,100162.54
2018-08-13T12:17:50.484Z,100159.91
2018-08-13T12:20:20.424Z,100157.67
2018-08-13T12:22:49.138Z,100154.11
2018-08-13T12:25:29.529Z,100156.27
2018-08-13T12:27:58.854Z,100151.02
2018-08-13T12:30:27.794Z,100145.72
2018-08-13T12:32:56.936Z,100143.00
2018-08-13T12:35:25.730Z,100157.61
2018-08-13T12:37:54.665Z,100157.36
2018-08-13T12:40:23.466Z,100155.28
2018-08-13T12:42:52.096Z,100156.80
2018-08-13T12:45:20.541Z,100151.84
2018-08-13T12:47:49.028Z,100158.51
2018-08-13T12:50:20.012Z,100158.20
2018-08-13T12:52:49.620Z,100158.86
2018-08-13T12:55:18.283Z,100152.14
2018-08-13T12:57:47.295Z,100139.03
2018-08-13T13:00:17.713Z,100139.38
2018-08-13T13:02:46.252Z,100131.16
2018-08-13T13:05:16.935Z,100126.10
2018-08-13T13:07:45.515Z,100129.53
2018-08-13T13:10:15.561Z,100127.50
2018-08-13T13:12:44.576Z,100119.72
2018-08-13T13:15:16.447Z,100127.31
2018-08-13T13:17:44.950Z,100128.73
2018-08-13T13:20:17.057Z,100128.80
2018-08-13T13:22:45.897Z,100127.38
2018-08-13T13:25:15.326Z,100121.73
2018-08-13T13:27:44.128Z,100117.58
2018-08-13T13:30:14.427Z,100112.43
2018-08-13T13:32:43.320Z,100112.92
2018-08-13T13:35:14.190Z,100108.87
2018-08-13T13:37:43.594Z,100099.56
2018-08-13T13:40:13.877Z,100099.56
2018-08-13T13:42:42.396Z,100093.29
2018-08-13T13:45:11.696Z,100094.16
2018-08-13T13:47:41.084Z,100085.34
2018-08-13T13:50:11.997Z,100086.66
2018-08-13T13:52:40.688Z,100084.16
2018-08-13T13:55:09.297Z,100084.36
2018-08-13T13:57:37.902Z,100075.55
2018-08-13T14:00:11.067Z,100077.64
2018-08-13T14:02:39.552Z,100076.17
2018-08-13T14:05:10.178Z,100068.88
2018-08-13T14:07:38.664Z,100067.04
2018-08-13T14:10:09.338Z,100065.20
2018-08-13T14:12:38.355Z,100058.84
2018-08-13T14:15:08.617Z,100061.07
2018-08-13T14:17:37.205Z,100057.09
2018-08-13T14:20:07.690Z,100067.37
2018-08-13T14:22:36.250Z,100065.13
2018-08-13T14:25:05.844Z,100063.19
2018-08-13T14:27:34.500Z,100064.25
2018-08-13T14:30:03.079Z,100064.41
2018-08-13T14:32:31.640Z,100062.10
2018-08-13T14:35:00.199Z,100061.07
2018-08-13T14:37:28.742Z,100064.70
2018-08-13T14:39:57.449Z,100071.55
2018-08-13T14:42:25.885Z,100064.50
2018-08-13T14:44:54.391Z,100060.01
2018-08-13T14:47:22.928Z,100057.31
2018-08-13T14:49:51.444Z,100056.61
2018-08-13T14:52:19.917Z,100050.94
2018-08-13T14:54:48.423Z,100041.23
2018-08-13T14:57:16.903Z,100051.56
2018-08-13T14:59:45.553Z,100056.05
2018-08-13T15:02:15.203Z,100048.09
2018-08-13T15:04:43.708Z,100039.17
2018-08-13T15:07:13.245Z,100040.65
2018-08-13T15:09:42.519Z,100050.37
2018-08-13T15:12:11.068Z,100045.77
2018-08-13T15:14:40.581Z,100044.75
2018-08-13T15:17:09.203Z,100047.70
2018-08-13T15:19:37.908Z,100045.19
2018-08-13T15:22:06.465Z,100045.19
2018-08-13T15:24:35.022Z,100043.42
2018-08-13T15:27:03.725Z,100037.40
2018-08-13T15:29:32.806Z,100034.02
2018-08-13T15:32:01.319Z,100033.02
2018-08-13T15:34:29.856Z,100029.30
2018-08-13T15:36:58.356Z,100041.71
2018-08-13T15:39:26.793Z,100038.30
2018-08-13T15:41:55.299Z,100042.27
2018-08-13T15:44:24.308Z,100036.69
2018-08-13T15:46:52.806Z,100037.84
2018-08-13T15:49:21.374Z,100031.70
2018-08-13T15:51:49.953Z,100036.70
2018-08-13T15:54:18.489Z,100021.08
2018-08-13T15:56:48.430Z,100022.88
2018-08-13T15:59:17.625Z,100023.23
2018-08-13T16:01:46.771Z,100014.08
2018-08-13T16:04:15.333Z,100012.42
2018-08-13T16:06:43.844Z,100015.36
2018-08-13T16:09:14.158Z,100020.16
2018-08-13T16:11:42.934Z,100020.40
2018-08-13T16:14:11.547Z,100022.41
2018-08-13T16:16:40.576Z,100021.86
2018-08-13T16:19:11.064Z,100013.83
2018-08-13T16:21:40.756Z,100017.20
2018-08-13T16:24:09.194Z,100008.48
2018-08-13T16:26:37.769Z,99996.84
2018-08-13T16:29:07.855Z,99988.50
2018-08-13T16:31:36.433Z,99987.61
2018-08-13T16:34:05.065Z,99992.39
2018-08-13T16:36:34.058Z,99997.20
2018-08-13T16:39:03.428Z,99988.09
2018-08-13T16:41:31.960Z,99989.59
2018-08-13T16:44:01.094Z,99994.75
2018-08-13T16:46:29.717Z,99990.81
2018-08-13T16:48:58.249Z,99998.03
2018-08-13T16:51:30.216Z,100000.30
2018-08-13T16:53:59.662Z,99999.51
2018-08-13T16:56:28.238Z,100009.59
2018-08-13T16:58:56.684Z,99999.27
2018-08-13T17:01:25.197Z,100000.63
2018-08-13T17:03:53.837Z,100001.39
2018-08-13T17:06:22.726Z,100000.16
2018-08-13T17:08:51.272Z,100000.33
2018-08-13T17:11:20.817Z,99991.15
2018-08-13T17:13:49.605Z,99992.84
2018-08-13T17:16:18.279Z,99992.84
2018-08-13T17:18:47.506Z,99992.59
2018-08-13T17:21:16.235Z,99990.14
2018-08-13T17:23:45.195Z,99986.37
2018-08-13T17:26:14.828Z,99981.50
2018-08-13T17:28:43.628Z,99978.79
2018-08-13T17:31:12.157Z,99971.64
2018-08-13T17:33:40.742Z,99974.94
2018-08-13T17:36:09.348Z,99976.94
2018-08-13T17:38:37.978Z,99980.61
2018-08-13T17:41:08.385Z,99986.88
2018-08-13T17:43:37.017Z,99995.92
2018-08-13T17:46:05.688Z,99991.91
2018-08-13T17:48:34.232Z,100001.73
2018-08-13T17:51:02.810Z,100001.30
2018-08-13T17:53:31.494Z,100003.67
2018-08-13T17:56:00.098Z,100001.22
2018-08-13T17:58:37.666Z,100000.41
2018-08-13T18:01:06.431Z,100006.32
2018-08-13T18:03:35.199Z,100011.09
2018-08-13T18:06:03.846Z,100007.84
2018-08-13T18:08:33.687Z,100008.88
2018-08-13T18:11:02.691Z,100016.75
2018-08-13T18:13:31.598Z,100022.08
2018-08-13T18:16:00.410Z,100020.88
2018-08-13T18:18:29.886Z,100026.33
2018-08-13T18:20:59.256Z,100027.84
2018-08-13T18:23:27.952Z,100027.92
2018-08-13T18:25:56.858Z,100026.03
2018-08-13T18:28:25.422Z,100026.62
2018-08-13T18:30:54.383Z,100024.95
2018-08-13T18:33:22.871Z,100036.92
2018-08-13T18:35:52.161Z,100039.16
2018-08-13T18:38:20.722Z,100041.52
2018-08-13T18:40:50.289Z,100040.41
2018-08-13T18:43:18.848Z,100043.02
2018-08-13T18:45:47.434Z,100042.27
2018-08-13T18:48:16.578Z,100049.02
2018-08-13T18:50:45.165Z,100049.02
2018-08-13T18:53:13.791Z,100043.30
2018-08-13T18:55:42.628Z,100043.89
2018-08-13T18:58:11.850Z,100049.03
2018-08-13T19:00:41.020Z,100049.98
2018-08-13T19:03:09.845Z,100055.69
2018-08-13T19:05:38.543Z,100049.89
2018-08-13T19:08:07.123Z,100050.98
2018-08-13T19:10:35.745Z,100057.64
2018-08-13T19:13:04.610Z,100067.47
2018-08-13T19:15:33.556Z,100073.25
2018-08-13T19:18:02.570Z,100073.52
2018-08-13T19:20:31.277Z,100073.06
2018-08-13T19:22:59.807Z,100076.33
2018-08-13T19:25:29.061Z,100078.41
2018-08-13T19:27:58.906Z,100073.83
2018-08-13T19:30:28.147Z,100074.56
2018-08-13T19:32:59.107Z,100077.92
2018-08-13T19:35:27.831Z,100079.98
2018-08-13T19:37:56.866Z,100083.34
2018-08-13T19:40:26.196Z,100086.22
2018-08-13T19:42:55.264Z,100091.37
2018-08-13T19:45:24.324Z,100093.06
2018-08-13T19:50:20.953Z,100099.67
2018-08-13T19:52:51.041Z,100097.52
2018-08-13T19:55:21.316Z,100091.75
2018-08-13T19:57:49.826Z,100096.20
2018-08-13T20:00:21.036Z,100097.23
2018-08-13T20:02:50.081Z,100099.20
2018-08-13T20:05:21.219Z,100099.38
2018-08-13T20:07:49.773Z,100103.38
2018-08-13T20:10:18.700Z,100097.23
2018-08-13T20:12:47.666Z,100105.61
2018-08-13T20:15:17.190Z,100111.69
2018-08-13T20:17:46.626Z,100115.36
2018-08-13T20:20:20.221Z,100116.48
2018-08-13T20:22:49.387Z,100112.09
2018-08-13T20:25:19.798Z,100112.48
2018-08-13T20:27:48.941Z,100114.25
2018-08-13T20:30:19.124Z,100121.06
2018-08-13T20:32:50.164Z,100119.30
2018-08-13T20:35:18.990Z,100112.30
2018-08-13T20:37:47.825Z,100124.07
2018-08-13T20:40:18.182Z,100129.02
2018-08-13T20:42:47.966Z,100132.28
2018-08-13T20:45:19.871Z,100130.41
2018-08-13T20:47:49.185Z,100131.05
2018-08-13T20:50:20.086Z,100137.01
2018-08-13T20:52:49.841Z,100144.66
2018-08-13T20:55:23.584Z,100133.96
2018-08-13T20:57:52.923Z,100131.01
2018-08-13T21:00:23.279Z,100136.14
2018-08-13T21:02:52.505Z,100131.80
2018-08-13T21:05:22.026Z,100129.22
2018-08-13T21:07:51.048Z,100134.09
2018-08-13T21:10:21.435Z,100144.68
2018-08-13T21:12:51.315Z,100141.85
2018-08-13T21:15:19.937Z,100138.14
2018-08-13T21:17:48.561Z,100142.30
2018-08-13T21:20:28.862Z,100156.38
2018-08-13T21:22:58.016Z,100156.89
2018-08-13T21:25:27.290Z,100163.10
2018-08-13T21:27:59.774Z,100163.33
2018-08-13T21:30:28.289Z,100159.58
2018-08-13T21:32:56.832Z,100170.58
2018-08-13T21:35:26.085Z,100164.45
2018-08-13T21:37:54.599Z,100170.98
2018-08-13T21:40:23.181Z,100179.56
2018-08-13T21:42:51.728Z,100183.19
2018-08-13T21:45:21.037Z,100178.83
2018-08-13T21:47:49.539Z,100186.59
2018-08-13T21:50:21.182Z,100184.61
2018-08-13T21:52:50.534Z,100192.44
2018-08-13T21:55:19.996Z,100193.13
2018-08-13T21:57:48.611Z,100200.83
2018-08-13T22:00:22.757Z,100200.27
2018-08-13T22:02:51.238Z,100198.22
2018-08-13T22:05:20.783Z,100199.59
2018-08-13T22:07:49.347Z,100202.07
2018-08-13T22:11:47.576Z,100200.66
2018-08-13T22:14:16.058Z,100205.29
2018-08-13T22:16:44.673Z,100208.52
2018-08-13T22:19:14.160Z,100197.69
2018-08-13T22:21:42.664Z,100201.08
2018-08-13T22:24:22.303Z,100201.67
2018-08-13T22:26:51.507Z,100207.67
2018-08-13T22:29:19.997Z,100203.98
2018-08-13T22:31:48.934Z,100211.20
2018-08-13T22:34:17.508Z,100221.41
2018-08-13T22:36:46.178Z,100220.63
2018-08-13T22:39:15.790Z,100226.47
2018-08-13T22:41:44.375Z,100225.94
2018-08-13T22:44:14.480Z,100227.02
2018-08-13T22:46:43.269Z,100231.84
2018-08-13T22:49:11.789Z,100236.06
2018-08-13T22:51:40.312Z,100235.99
2018-08-13T22:54:08.833Z,100238.67
2018-08-13T22:56:37.295Z,100235.70
2018-08-13T22:59:06.394Z,100243.13
2018-08-13T23:01:35.487Z,100250.89
2018-08-13T23:04:04.803Z,100244.06
2018-08-13T23:06:33.487Z,100249.80
2018-08-13T23:09:02.174Z,100245.37
2018-08-13T23:11:31.214Z,100248.95
2018-08-13T23:14:00.914Z,100244.19
2018-08-13T23:16:29.476Z,100248.50
2018-08-13T23:18:58.020Z,100254.11
2018-08-13T23:21:26.611Z,100256.27
2018-08-13T23:23:55.392Z,100261.19
2018-08-13T23:26:24.657Z,100266.86
2018-08-13T23:28:53.137Z,100263.58
2018-08-13T23:31:21.833Z,100266.00
2018-08-13T23:33:50.409Z,100265.39
2018-08-13T23:36:18.897Z,100261.33
2018-08-13T23:38:48.321Z,100263.70
2018-08-13T23:41:16.873Z,100265.30
2018-08-13T23:43:45.358Z,100280.19
2018-08-13T23:46:14.082Z,100277.44
2018-08-13T23:48:43.306Z,100279.98
2018-08-13T23:51:11.920Z,100278.13
2018-08-13T23:53:40.506Z,100280.58
2018-08-13T23:56:09.100Z,100277.30
2018-08-13T23:58:37.780Z,100276.98
